sensor_id;sensor_type;location;lat;lon;timestamp;pressure;altitude;pressure_sealevel;temperature;humidity
22775;BME280;11554;51.106;3.684;2023-02-04T00:00:00;103358.13;;;9.07;100.0
22775;BME280;11554;51.106;3.684;2023-02-04T00:05:00;103358.06999999999;;;9.05;100.0
22775;BME280;11554;51.106;3.684;2023-02-04T00:10:00;103357.42;;;9.04;100.0
22775;BME280;11554;51.106;3.684;2023-02-04T00:15:00;103359.02;;;9.04;100.0
22775;BME280;11554;51.106;3.684;2023-02-04T00:20:00;103355.69;;;9.03;100.0
22775;BME280;11554;51.106;3.684;2023-02-04T00:25:00;103353.31000000001;;;9.01;100.0
22775;BME280;11554;51.106;3.684;2023-02-04T00:30:00;103357.8;;;8.99;100.0
22775;BME280;11554;51.106;3.684;2023-02-04T00:35:00;103355.54;;;8.98;100.0
22775;BME280;11554;51.106;3.684;2023-02-04T00:40:00;103355.93;;;8.94;100.0
22775;BME280;11554;51.106;3.684;2023-02-04T00:45:00;103357.93000000001;;;8.91;100.0
22775;BME280;11554;51.106;3.684;2023-02-04T00:50:00;103358.5;;;8.88;100.0
22775;BME280;11554;51.106;3.684;2023-02-04T00:55:00;103363.37000000001;;;8.86;100.0
22775;BME280;11554;51.106;3.684;2023-02-04T01:00:00;103368.09000000001;;;8.80;100.0
22775;BME280;11554;51.106;3.684;2023-02-04T01:05:00;103366.75;;;8.76;100.0
22775;BME280;11554;51.106;3.684;2023-02-04T01:10:00;103366.60999999999;;;8.72;100.0
22775;BME280;11554;51.106;3.684;2023-02-04T01:15:00;103362.56000000001;;;8.67;100.0
22775;BME280;11554;51.106;3.684;2023-02-04T01:20:00;103365.76;;;8.63;100.0
22775;BME280;11554;51.106;3.684;2023-02-04T01:25:00;103371.26000000001;;;8.60;100.0
22775;BME280;11554;51.106;3.684;2023-02-04T01:30:00;103374.11;;;8.57;100.0
22775;BME280;11554;51.106;3.684;2023-02-04T01:35:00;103379.68000000001;;;8.55;100.0
22775;BME280;11554;51.106;3.684;2023-02-04T01:40:00;103381.86;;;8.53;100.0
22775;BME280;11554;51.106;3.684;2023-02-04T01:45:00;103387.17;;;8.50;100.0
22775;BME280;11554;51.106;3.684;2023-02-04T01:50:00;103392.40999999999;;;8.49;100.0
22775;BME280;11554;51.106;3.684;2023-02-04T01:55:00;103393.46;;;8.48;100.0
22775;BME280;11554;51.106;3.684;2023-02-04T02:00:00;103390.64000000001;;;8.48;100.0
22775;BME280;11554;51.106;3.684;2023-02-04T02:05:00;103391.91;;;8.45;100.0
22775;BME280;11554;51.106;3.684;2023-02-04T02:10:00;103393.86;;;8.44;100.0
22775;BME280;11554;51.106;3.684;2023-02-04T02:15:00;103396.02;;;8.42;100.0
22775;BME280;11554;51.106;3.684;2023-02-04T02:20:00;103400.21999999999;;;8.40;100.0
22775;BME280;11554;51.106;3.684;2023-02-04T02:25:00;103405.90999999999;;;8.38;100.0
22775;BME280;11554;51.106;3.684;2023-02-04T02:30:00;103408.18999999999;;;8.36;100.0
22775;BME280;11554;51.106;3.684;2023-02-04T02:35:00;103413.21;;;8.33;100.0
22775;BME280;11554;51.106;3.684;2023-02-04T02:40:00;103417.3;;;8.32;100.0
22775;BME280;11554;51.106;3.684;2023-02-04T02:45:00;103419.46;;;8.31;100.0
22775;BME280;11554;51.106;3.684;2023-02-04T02:50:00;103417.06999999999;;;8.30;100.0
22775;BME280;11554;51.106;3.684;2023-02-04T02:55:00;103425.93999999999;;;8.28;100.0
22775;BME280;11554;51.106;3.684;2023-02-04T03:00:00;103425.88;;;8.27;100.0
22775;BME280;11554;51.106;3.684;2023-02-04T03:05:00;103433.47000000002;;;8.26;100.0
22775;BME280;11554;51.106;3.684;2023-02-04T03:10:00;103449.76999999999;;;8.26;100.0
22775;BME280;11554;51.106;3.684;2023-02-04T03:15:01;103442.24999999999;;;8.25;100.0
22775;BME280;11554;51.106;3.684;2023-02-04T03:20:00;103447.06000000001;;;8.26;100.0
22775;BME280;11554;51.106;3.684;2023-02-04T03:25:00;103454.96;;;8.25;100.0
22775;BME280;11554;51.106;3.684;2023-02-04T03:30:00;103454.54;;;8.24;100.0
22775;BME280;11554;51.106;3.684;2023-02-04T03:35:00;103451.18;;;8.22;100.0
22775;BME280;11554;51.106;3.684;2023-02-04T03:40:00;103452.27;;;8.20;100.0
22775;BME280;11554;51.106;3.684;2023-02-04T03:45:00;103450.23000000001;;;8.19;100.0
22775;BME280;11554;51.106;3.684;2023-02-04T03:50:00;103449.68;;;8.17;100.0
22775;BME280;11554;51.106;3.684;2023-02-04T03:55:00;103455.47999999998;;;8.18;100.0
22775;BME280;11554;51.106;3.684;2023-02-04T04:00:00;103459.18999999999;;;8.17;100.0
22775;BME280;11554;51.106;3.684;2023-02-04T04:05:00;103458.45999999999;;;8.16;100.0
22775;BME280;11554;51.106;3.684;2023-02-04T04:10:00;103460.45999999999;;;8.14;100.0
22775;BME280;11554;51.106;3.684;2023-02-04T04:15:00;103457.62999999999;;;8.13;100.0
22775;BME280;11554;51.106;3.684;2023-02-04T04:20:00;103465.81000000001;;;8.11;100.0
22775;BME280;11554;51.106;3.684;2023-02-04T04:25:00;103470.92;;;8.08;100.0
22775;BME280;11554;51.106;3.684;2023-02-04T04:30:00;103474.37;;;8.07;100.0
22775;BME280;11554;51.106;3.684;2023-02-04T04:35:00;103476.75;;;8.06;100.0
22775;BME280;11554;51.106;3.684;2023-02-04T04:40:00;103481.21;;;8.05;100.0
22775;BME280;11554;51.106;3.684;2023-02-04T04:45:00;103483.87;;;8.05;100.0
22775;BME280;11554;51.106;3.684;2023-02-04T04:50:00;103483.08;;;8.04;100.0
22775;BME280;11554;51.106;3.684;2023-02-04T04:55:00;103486.06;;;8.04;100.0
22775;BME280;11554;51.106;3.684;2023-02-04T05:00:00;103483.90999999999;;;8.02;100.0
22775;BME280;11554;51.106;3.684;2023-02-04T05:05:00;103487.32;;;8.00;100.0
22775;BME280;11554;51.106;3.684;2023-02-04T05:10:00;103486.25;;;7.99;100.0
22775;BME280;11554;51.106;3.684;2023-02-04T05:15:00;103482.8;;;7.98;100.0
22775;BME280;11554;51.106;3.684;2023-02-04T05:20:00;103486.01000000001;;;7.97;100.0
22775;BME280;11554;51.106;3.684;2023-02-04T05:25:00;103485.84000000001;;;7.95;100.0
22775;BME280;11554;51.106;3.684;2023-02-04T05:30:00;103480.87000000001;;;7.95;100.0
22775;BME280;11554;51.106;3.684;2023-02-04T05:35:00;103484.89;;;7.93;100.0
22775;BME280;11554;51.106;3.684;2023-02-04T05:40:00;103486.66;;;7.91;100.0
22775;BME280;11554;51.106;3.684;2023-02-04T05:45:00;103491.23999999999;;;7.90;100.0
22775;BME280;11554;51.106;3.684;2023-02-04T05:50:00;103493.96999999999;;;7.90;100.0
22775;BME280;11554;51.106;3.684;2023-02-04T05:55:00;103495.52;;;7.90;100.0
22775;BME280;11554;51.106;3.684;2023-02-04T06:00:00;103502.01;;;7.89;100.0
22775;BME280;11554;51.106;3.684;2023-02-04T06:05:00;103494.37000000001;;;7.88;100.0
22775;BME280;11554;51.106;3.684;2023-02-04T06:10:00;103499.22999999998;;;7.85;100.0
22775;BME280;11554;51.106;3.684;2023-02-04T06:15:00;103502.64;;;7.84;100.0
22775;BME280;11554;51.106;3.684;2023-02-04T06:20:00;103510.45999999999;;;7.83;100.0
22775;BME280;11554;51.106;3.684;2023-02-04T06:25:00;103513.5;;;7.83;100.0
22775;BME280;11554;51.106;3.684;2023-02-04T06:30:00;103517.40999999999;;;7.83;100.0
22775;BME280;11554;51.106;3.684;2023-02-04T06:35:00;103520.39;;;7.83;100.0
22775;BME280;11554;51.106;3.684;2023-02-04T06:40:01;103522.75;;;7.79;100.0
22775;BME280;11554;51.106;3.684;2023-02-04T06:45:00;103531.81;;;7.77;100.0
22775;BME280;11554;51.106;3.684;2023-02-04T06:50:00;103532.62999999999;;;7.74;100.0
22775;BME280;11554;51.106;3.684;2023-02-04T06:55:00;103537.7;;;7.73;100.0
22775;BME280;11554;51.106;3.684;2023-02-04T07:00:00;103543.68;;;7.73;100.0
22775;BME280;11554;51.106;3.684;2023-02-04T07:05:00;103546.57999999999;;;7.74;100.0
22775;BME280;11554;51.106;3.684;2023-02-04T07:10:00;103545.08;;;7.72;100.0
22775;BME280;11554;51.106;3.684;2023-02-04T07:15:00;103553.23000000001;;;7.67;100.0
22775;BME280;11554;51.106;3.684;2023-02-04T07:20:00;103558.61;;;7.65;100.0
22775;BME280;11554;51.106;3.684;2023-02-04T07:25:00;103564.82;;;7.63;100.0
22775;BME280;11554;51.106;3.684;2023-02-04T07:30:00;103559.42;;;7.62;100.0
22775;BME280;11554;51.106;3.684;2023-02-04T07:35:00;103558.04000000001;;;7.61;100.0
22775;BME280;11554;51.106;3.684;2023-02-04T07:40:00;103554.61;;;7.62;100.0
22775;BME280;11554;51.106;3.684;2023-02-04T07:45:00;103567.19;;;7.64;100.0
22775;BME280;11554;51.106;3.684;2023-02-04T07:50:00;103578.38999999998;;;7.67;100.0
22775;BME280;11554;51.106;3.684;2023-02-04T07:55:00;103580.18;;;7.70;100.0
22775;BME280;11554;51.106;3.684;2023-02-04T08:00:00;103592.11;;;7.74;100.0
22775;BME280;11554;51.106;3.684;2023-02-04T08:05:00;103590.11;;;7.78;100.0
22775;BME280;11554;51.106;3.684;2023-02-04T08:10:00;103595.54000000001;;;7.83;100.0
22775;BME280;11554;51.106;3.684;2023-02-04T08:15:00;103601.30999999998;;;7.87;100.0
22775;BME280;11554;51.106;3.684;2023-02-04T08:20:00;103602.2;;;7.90;100.0
22775;BME280;11554;51.106;3.684;2023-02-04T08:25:00;103598.43000000001;;;8.00;100.0
22775;BME280;11554;51.106;3.684;2023-02-04T08:30:00;103599.37;;;8.12;100.0
22775;BME280;11554;51.106;3.684;2023-02-04T08:35:00;103602.65;;;8.23;100.0
22775;BME280;11554;51.106;3.684;2023-02-04T08:40:00;103611.23999999999;;;8.27;100.0
22775;BME280;11554;51.106;3.684;2023-02-04T08:45:00;103614.77;;;8.30;100.0
22775;BME280;11554;51.106;3.684;2023-02-04T08:50:00;103617.95999999999;;;8.36;100.0
22775;BME280;11554;51.106;3.684;2023-02-04T08:55:00;103617.54000000001;;;8.44;100.0
22775;BME280;11554;51.106;3.684;2023-02-04T09:00:00;103631.98;;;8.54;100.0
22775;BME280;11554;51.106;3.684;2023-02-04T09:05:00;103638.4;;;8.82;100.0
22775;BME280;11554;51.106;3.684;2023-02-04T09:10:00;103651.4;;;9.08;100.0
22775;BME280;11554;51.106;3.684;2023-02-04T09:15:00;103656.09;;;9.34;100.0
22775;BME280;11554;51.106;3.684;2023-02-04T09:20:00;103656.37;;;9.52;100.0
22775;BME280;11554;51.106;3.684;2023-02-04T09:25:00;103657.24;;;9.54;100.0
22775;BME280;11554;51.106;3.684;2023-02-04T09:30:00;103657.31000000001;;;9.76;100.0
22775;BME280;11554;51.106;3.684;2023-02-04T09:35:00;103659.58;;;9.78;100.0
22775;BME280;11554;51.106;3.684;2023-02-04T09:40:00;103660.93000000001;;;10.06;100.0
22775;BME280;11554;51.106;3.684;2023-02-04T09:45:00;103666.67;;;10.24;100.0
22775;BME280;11554;51.106;3.684;2023-02-04T09:50:00;103675.93999999999;;;10.40;100.0
22775;BME280;11554;51.106;3.684;2023-02-04T09:55:00;103676.33;;;10.45;100.0
22775;BME280;11554;51.106;3.684;2023-02-04T10:00:00;103677.22000000002;;;10.49;100.0
22775;BME280;11554;51.106;3.684;2023-02-04T10:05:00;103680.90999999999;;;10.57;100.0
22775;BME280;11554;51.106;3.684;2023-02-04T10:10:00;103691.13;;;10.74;100.0
22775;BME280;11554;51.106;3.684;2023-02-04T10:15:00;103692.26000000001;;;10.89;100.0
22775;BME280;11554;51.106;3.684;2023-02-04T10:20:00;103693.29000000001;;;11.01;100.0
22775;BME280;11554;51.106;3.684;2023-02-04T10:25:00;103691.75;;;11.06;100.0
22775;BME280;11554;51.106;3.684;2023-02-04T10:30:00;103696.11;;;11.16;100.0
22775;BME280;11554;51.106;3.684;2023-02-04T10:35:01;103698.12;;;11.28;100.0
22775;BME280;11554;51.106;3.684;2023-02-04T10:40:00;103706.01999999999;;;11.43;100.0
22775;BME280;11554;51.106;3.684;2023-02-04T10:45:00;103701.75;;;11.53;100.0
22775;BME280;11554;51.106;3.684;2023-02-04T10:50:01;103698.1;;;11.71;100.0
22775;BME280;11554;51.106;3.684;2023-02-04T10:55:01;103697.92;;;11.84;100.0
22775;BME280;11554;51.106;3.684;2023-02-04T11:00:00;103696.64;;;11.81;100.0
22775;BME280;11554;51.106;3.684;2023-02-04T11:05:00;103696.94;;;11.82;100.0
22775;BME280;11554;51.106;3.684;2023-02-04T11:10:00;103685.58;;;11.90;100.0
22775;BME280;11554;51.106;3.684;2023-02-04T11:15:00;103684.47000000002;;;12.15;100.0
22775;BME280;11554;51.106;3.684;2023-02-04T11:25:00;103683.86;;;12.31;100.0
22775;BME280;11554;51.106;3.684;2023-02-04T11:30:04;103681.91999999998;;;12.38;100.0
22775;BME280;11554;51.106;3.684;2023-02-04T11:35:07;103689.59999999999;;;12.26;100.0
22775;BME280;11554;51.106;3.684;2023-02-04T11:40:00;103682.91999999998;;;12.07;100.0
22775;BME280;11554;51.106;3.684;2023-02-04T11:45:01;103681.8;;;12.14;100.0
22775;BME280;11554;51.106;3.684;2023-02-04T11:50:01;103683.65;;;12.17;100.0
22775;BME280;11554;51.106;3.684;2023-02-04T11:55:00;103688.04000000001;;;12.13;100.0
22775;BME280;11554;51.106;3.684;2023-02-04T12:00:00;103689.69;;;12.00;100.0
22775;BME280;11554;51.106;3.684;2023-02-04T12:05:08;103691.95999999999;;;11.95;100.0
22775;BME280;11554;51.106;3.684;2023-02-04T12:10:09;103689.47;;;11.88;100.0
22775;BME280;11554;51.106;3.684;2023-02-04T12:15:01;103695.92;;;11.82;100.0
22775;BME280;11554;51.106;3.684;2023-02-04T12:20:00;103700.72;;;11.75;100.0
22775;BME280;11554;51.106;3.684;2023-02-04T12:25:00;103696.47;;;11.78;100.0
22775;BME280;11554;51.106;3.684;2023-02-04T12:30:00;103698.76999999999;;;11.81;100.0
22775;BME280;11554;51.106;3.684;2023-02-04T12:35:00;103703.54999999999;;;11.77;100.0
22775;BME280;11554;51.106;3.684;2023-02-04T12:40:00;103699.93;;;11.70;100.0
22775;BME280;11554;51.106;3.684;2023-02-04T12:45:00;103697.53;;;11.64;100.0
22775;BME280;11554;51.106;3.684;2023-02-04T12:50:00;103702.23000000001;;;11.67;100.0
22775;BME280;11554;51.106;3.684;2023-02-04T12:55:00;103705.69;;;11.59;100.0
22775;BME280;11554;51.106;3.684;2023-02-04T13:00:00;103706.07;;;11.51;100.0
22775;BME280;11554;51.106;3.684;2023-02-04T13:05:00;103705.56999999999;;;11.46;100.0
22775;BME280;11554;51.106;3.684;2023-02-04T13:10:00;103704.72;;;11.52;100.0
22775;BME280;11554;51.106;3.684;2023-02-04T13:15:00;103698.08;;;11.59;100.0
22775;BME280;11554;51.106;3.684;2023-02-04T13:20:00;103694.84999999999;;;11.67;100.0
22775;BME280;11554;51.106;3.684;2023-02-04T13:25:00;103691.31;;;11.60;100.0
22775;BME280;11554;51.106;3.684;2023-02-04T13:30:00;103683.90999999999;;;11.54;100.0
22775;BME280;11554;51.106;3.684;2023-02-04T13:35:00;103676.53;;;11.53;100.0
22775;BME280;11554;51.106;3.684;2023-02-04T13:40:00;103676.12;;;11.63;100.0
22775;BME280;11554;51.106;3.684;2023-02-04T13:45:00;103678.09999999999;;;11.61;100.0
22775;BME280;11554;51.106;3.684;2023-02-04T13:50:00;103671.26000000001;;;11.64;100.0
22775;BME280;11554;51.106;3.684;2023-02-04T13:55:00;103671.22;;;11.58;100.0
22775;BME280;11554;51.106;3.684;2023-02-04T14:00:00;103671.0;;;11.57;100.0
22775;BME280;11554;51.106;3.684;2023-02-04T14:05:00;103667.22;;;11.57;100.0
22775;BME280;11554;51.106;3.684;2023-02-04T14:10:00;103664.94;;;11.49;100.0
22775;BME280;11554;51.106;3.684;2023-02-04T14:15:00;103664.56000000001;;;11.33;100.0
22775;BME280;11554;51.106;3.684;2023-02-04T14:20:00;103675.73;;;11.29;100.0
22775;BME280;11554;51.106;3.684;2023-02-04T14:25:00;103682.39000000001;;;11.16;100.0
22775;BME280;11554;51.106;3.684;2023-02-04T14:30:00;103685.23;;;11.04;100.0
22775;BME280;11554;51.106;3.684;2023-02-04T14:35:00;103688.04000000001;;;11.02;100.0
22775;BME280;11554;51.106;3.684;2023-02-04T14:40:00;103691.65000000001;;;10.92;100.0
22775;BME280;11554;51.106;3.684;2023-02-04T14:45:00;103688.51;;;10.94;100.0
22775;BME280;11554;51.106;3.684;2023-02-04T14:50:00;103691.06;;;10.90;100.0
22775;BME280;11554;51.106;3.684;2023-02-04T14:55:00;103693.48999999999;;;10.88;100.0
22775;BME280;11554;51.106;3.684;2023-02-04T15:00:00;103694.25000000001;;;10.75;100.0
22775;BME280;11554;51.106;3.684;2023-02-04T15:05:00;103685.73;;;10.73;100.0
22775;BME280;11554;51.106;3.684;2023-02-04T15:10:00;103683.56000000001;;;10.67;100.0
22775;BME280;11554;51.106;3.684;2023-02-04T15:15:00;103681.15000000001;;;10.60;100.0
22775;BME280;11554;51.106;3.684;2023-02-04T15:20:00;103684.59;;;10.55;100.0
22775;BME280;11554;51.106;3.684;2023-02-04T15:25:00;103684.84000000001;;;10.47;100.0
22775;BME280;11554;51.106;3.684;2023-02-04T15:30:00;103688.22;;;10.43;100.0
22775;BME280;11554;51.106;3.684;2023-02-04T15:35:00;103690.32999999999;;;10.32;100.0
22775;BME280;11554;51.106;3.684;2023-02-04T15:40:00;103689.72000000002;;;10.22;100.0
22775;BME280;11554;51.106;3.684;2023-02-04T15:45:00;103690.47;;;10.12;100.0
22775;BME280;11554;51.106;3.684;2023-02-04T15:50:00;103688.13;;;10.01;100.0
22775;BME280;11554;51.106;3.684;2023-02-04T15:55:00;103687.84000000001;;;9.90;100.0
22775;BME280;11554;51.106;3.684;2023-02-04T16:00:00;103690.78;;;9.82;100.0
22775;BME280;11554;51.106;3.684;2023-02-04T16:05:00;103694.96999999999;;;9.75;100.0
22775;BME280;11554;51.106;3.684;2023-02-04T16:10:00;103702.37999999999;;;9.65;100.0
22775;BME280;11554;51.106;3.684;2023-02-04T16:15:00;103705.24;;;9.56;100.0
22775;BME280;11554;51.106;3.684;2023-02-04T16:20:00;103706.30000000002;;;9.47;100.0
22775;BME280;11554;51.106;3.684;2023-02-04T16:25:00;103712.46;;;9.40;100.0
22775;BME280;11554;51.106;3.684;2023-02-04T16:30:00;103730.68000000001;;;9.32;100.0
22775;BME280;11554;51.106;3.684;2023-02-04T16:35:00;103732.26;;;9.24;100.0
22775;BME280;11554;51.106;3.684;2023-02-04T16:40:00;103739.21;;;9.16;100.0
22775;BME280;11554;51.106;3.684;2023-02-04T16:45:00;103741.26000000001;;;9.09;100.0
22775;BME280;11554;51.106;3.684;2023-02-04T16:50:00;103747.51000000001;;;9.00;100.0
22775;BME280;11554;51.106;3.684;2023-02-04T16:55:00;103753.44;;;8.93;100.0
22775;BME280;11554;51.106;3.684;2023-02-04T17:00:00;103758.59;;;8.87;100.0
22775;BME280;11554;51.106;3.684;2023-02-04T17:05:00;103758.95000000001;;;8.81;100.0
22775;BME280;11554;51.106;3.684;2023-02-04T17:10:00;103759.71999999999;;;8.77;100.0
22775;BME280;11554;51.106;3.684;2023-02-04T17:15:00;103760.1;;;8.73;100.0
22775;BME280;11554;51.106;3.684;2023-02-04T17:20:00;103760.3;;;8.69;100.0
22775;BME280;11554;51.106;3.684;2023-02-04T17:25:00;103764.38;;;8.64;100.0
22775;BME280;11554;51.106;3.684;2023-02-04T17:30:00;103772.52;;;8.59;100.0
22775;BME280;11554;51.106;3.684;2023-02-04T17:35:00;103766.41;;;8.54;100.0
22775;BME280;11554;51.106;3.684;2023-02-04T17:40:00;103765.67;;;8.49;100.0
22775;BME280;11554;51.106;3.684;2023-02-04T17:45:00;103772.29;;;8.45;100.0
22775;BME280;11554;51.106;3.684;2023-02-04T17:50:00;103786.1;;;8.41;100.0
22775;BME280;11554;51.106;3.684;2023-02-04T17:55:00;103794.64;;;8.38;100.0
22775;BME280;11554;51.106;3.684;2023-02-04T18:00:00;103798.62000000001;;;8.32;100.0
22775;BME280;11554;51.106;3.684;2023-02-04T18:05:06;103801.6;;;8.30;100.0
22775;BME280;11554;51.106;3.684;2023-02-04T18:10:08;103796.95;;;8.27;100.0
22775;BME280;11554;51.106;3.684;2023-02-04T18:15:00;103798.28;;;8.24;100.0
22775;BME280;11554;51.106;3.684;2023-02-04T18:20:00;103800.9;;;8.20;100.0
22775;BME280;11554;51.106;3.684;2023-02-04T18:25:00;103797.27;;;8.17;100.0
22775;BME280;11554;51.106;3.684;2023-02-04T18:30:00;103800.73;;;8.13;100.0
22775;BME280;11554;51.106;3.684;2023-02-04T18:35:00;103803.92;;;8.10;100.0
22775;BME280;11554;51.106;3.684;2023-02-04T18:40:13;103804.92;;;8.07;100.0
22775;BME280;11554;51.106;3.684;2023-02-04T18:45:01;103808.06;;;8.05;100.0
22775;BME280;11554;51.106;3.684;2023-02-04T18:50:01;103819.78;;;8.02;100.0
22775;BME280;11554;51.106;3.684;2023-02-04T18:55:00;103824.6;;;7.97;100.0
22775;BME280;11554;51.106;3.684;2023-02-04T19:05:00;103821.31;;;7.91;100.0
22775;BME280;11554;51.106;3.684;2023-02-04T19:10:00;103822.2;;;7.87;100.0
22775;BME280;11554;51.106;3.684;2023-02-04T19:15:00;103823.75;;;7.85;100.0
22775;BME280;11554;51.106;3.684;2023-02-04T19:20:00;103838.1;;;7.84;100.0
22775;BME280;11554;51.106;3.684;2023-02-04T19:25:01;103837.59999999999;;;7.80;100.0
22775;BME280;11554;51.106;3.684;2023-02-04T19:30:00;103833.11000000002;;;7.75;100.0
22775;BME280;11554;51.106;3.684;2023-02-04T19:35:00;103846.06000000001;;;7.73;100.0
22775;BME280;11554;51.106;3.684;2023-02-04T19:40:00;103845.13999999998;;;7.70;100.0
22775;BME280;11554;51.106;3.684;2023-02-04T19:45:00;103844.31999999999;;;7.66;100.0
22775;BME280;11554;51.106;3.684;2023-02-04T19:50:01;103843.31999999999;;;7.62;100.0
22775;BME280;11554;51.106;3.684;2023-02-04T20:00:00;103836.84000000001;;;7.55;100.0
22775;BME280;11554;51.106;3.684;2023-02-04T20:05:00;103840.95;;;7.55;100.0
22775;BME280;11554;51.106;3.684;2023-02-04T20:10:00;103838.06999999999;;;7.53;100.0
22775;BME280;11554;51.106;3.684;2023-02-04T20:15:00;103838.85;;;7.49;100.0
22775;BME280;11554;51.106;3.684;2023-02-04T20:20:01;103837.40000000001;;;7.48;100.0
22775;BME280;11554;51.106;3.684;2023-02-04T20:25:07;103832.62999999999;;;7.45;100.0
22775;BME280;11554;51.106;3.684;2023-02-04T20:30:00;103826.99;;;7.43;100.0
22775;BME280;11554;51.106;3.684;2023-02-04T20:35:00;103842.40999999999;;;7.41;100.0
22775;BME280;11554;51.106;3.684;2023-02-04T20:40:00;103846.57999999999;;;7.39;100.0
22775;BME280;11554;51.106;3.684;2023-02-04T20:45:10;103855.56999999999;;;7.36;100.0
22775;BME280;11554;51.106;3.684;2023-02-04T20:50:00;103845.81000000001;;;7.36;100.0
22775;BME280;11554;51.106;3.684;2023-02-04T20:55:00;103848.79000000001;;;7.35;100.0
22775;BME280;11554;51.106;3.684;2023-02-04T21:00:00;103839.58;;;7.33;100.0
22775;BME280;11554;51.106;3.684;2023-02-04T21:05:00;103841.43;;;7.31;100.0
22775;BME280;11554;51.106;3.684;2023-02-04T21:10:00;103841.42;;;7.29;100.0
22775;BME280;11554;51.106;3.684;2023-02-04T21:15:00;103829.9;;;7.28;100.0
22775;BME280;11554;51.106;3.684;2023-02-04T21:20:00;103834.17;;;7.28;100.0
22775;BME280;11554;51.106;3.684;2023-02-04T21:25:00;103837.34;;;7.27;100.0
22775;BME280;11554;51.106;3.684;2023-02-04T21:30:00;103817.14;;;7.27;100.0
22775;BME280;11554;51.106;3.684;2023-02-04T21:35:00;103820.20999999999;;;7.24;100.0
22775;BME280;11554;51.106;3.684;2023-02-04T21:40:00;103827.92;;;7.20;100.0
22775;BME280;11554;51.106;3.684;2023-02-04T21:45:00;103836.33;;;7.20;100.0
22775;BME280;11554;51.106;3.684;2023-02-04T21:50:00;103844.59999999999;;;7.18;100.0
22775;BME280;11554;51.106;3.684;2023-02-04T21:55:00;103858.44;;;7.16;100.0
22775;BME280;11554;51.106;3.684;2023-02-04T22:00:00;103857.81999999999;;;7.17;100.0
22775;BME280;11554;51.106;3.684;2023-02-04T22:05:00;103858.97;;;7.16;100.0
22775;BME280;11554;51.106;3.684;2023-02-04T22:10:00;103856.76000000001;;;7.16;100.0
22775;BME280;11554;51.106;3.684;2023-02-04T22:15:00;103850.77000000002;;;7.15;100.0
22775;BME280;11554;51.106;3.684;2023-02-04T22:20:00;103857.42;;;7.16;100.0
22775;BME280;11554;51.106;3.684;2023-02-04T22:25:00;103857.59000000001;;;7.15;100.0
22775;BME280;11554;51.106;3.684;2023-02-04T22:30:00;103865.43999999999;;;7.15;100.0
22775;BME280;11554;51.106;3.684;2023-02-04T22:35:00;103867.24999999999;;;7.14;100.0
22775;BME280;11554;51.106;3.684;2023-02-04T22:40:00;103871.08;;;7.15;100.0
22775;BME280;11554;51.106;3.684;2023-02-04T22:45:00;103862.59999999999;;;7.13;100.0
22775;BME280;11554;51.106;3.684;2023-02-04T22:50:00;103870.26000000001;;;7.12;100.0
22775;BME280;11554;51.106;3.684;2023-02-04T22:55:00;103867.48;;;7.10;100.0
22775;BME280;11554;51.106;3.684;2023-02-04T23:00:00;103867.29000000001;;;7.08;100.0
22775;BME280;11554;51.106;3.684;2023-02-04T23:05:00;103861.87;;;7.05;100.0
22775;BME280;11554;51.106;3.684;2023-02-04T23:10:00;103848.99;;;7.03;100.0
22775;BME280;11554;51.106;3.684;2023-02-04T23:15:00;103849.90000000001;;;7.01;100.0
22775;BME280;11554;51.106;3.684;2023-02-04T23:20:00;103847.31;;;7.00;100.0
22775;BME280;11554;51.106;3.684;2023-02-04T23:25:00;103834.51;;;6.99;100.0
22775;BME280;11554;51.106;3.684;2023-02-04T23:30:00;103829.52;;;6.96;100.0
22775;BME280;11554;51.106;3.684;2023-02-04T23:35:00;103824.4;;;6.94;100.0
22775;BME280;11554;51.106;3.684;2023-02-04T23:40:00;103828.73999999999;;;6.90;100.0
22775;BME280;11554;51.106;3.684;2023-02-04T23:45:00;103834.47000000002;;;6.88;100.0
22775;BME280;11554;51.106;3.684;2023-02-04T23:50:00;103822.53;;;6.85;100.0
22775;BME280;11554;51.106;3.684;2023-02-04T23:55:00;103816.5;;;6.83;100.0
